sensor_id;sensor_type;location;lat;lon;timestamp;temperature;humidity
16511;DHT22;8368;48.772;8.754;2022-09-27T00:01:33;8.80;99.90
16511;DHT22;8368;48.772;8.754;2022-09-27T00:03:58;8.80;99.90
16511;DHT22;8368;48.772;8.754;2022-09-27T00:06:27;8.80;99.90
16511;DHT22;8368;48.772;8.754;2022-09-27T00:08:53;8.80;99.90
16511;DHT22;8368;48.772;8.754;2022-09-27T00:11:33;8.80;99.90
16511;DHT22;8368;48.772;8.754;2022-09-27T00:14:00;8.80;99.90
16511;DHT22;8368;48.772;8.754;2022-09-27T00:16:31;8.80;99.90
16511;DHT22;8368;48.772;8.754;2022-09-27T00:18:58;8.90;99.90
16511;DHT22;8368;48.772;8.754;2022-09-27T00:21:24;8.90;99.90
16511;DHT22;8368;48.772;8.754;2022-09-27T00:23:50;8.90;99.90
16511;DHT22;8368;48.772;8.754;2022-09-27T00:26:15;8.90;99.90
16511;DHT22;8368;48.772;8.754;2022-09-27T00:28:41;8.90;99.90
16511;DHT22;8368;48.772;8.754;2022-09-27T00:31:16;8.90;99.90
16511;DHT22;8368;48.772;8.754;2022-09-27T00:33:42;8.90;99.90
16511;DHT22;8368;48.772;8.754;2022-09-27T00:36:08;8.90;99.90
16511;DHT22;8368;48.772;8.754;2022-09-27T00:38:34;8.90;99.90
16511;DHT22;8368;48.772;8.754;2022-09-27T00:40:59;9.00;99.90
16511;DHT22;8368;48.772;8.754;2022-09-27T00:43:25;9.00;99.90
16511;DHT22;8368;48.772;8.754;2022-09-27T00:45:58;9.00;99.90
16511;DHT22;8368;48.772;8.754;2022-09-27T00:48:28;9.00;99.90
16511;DHT22;8368;48.772;8.754;2022-09-27T00:50:58;9.00;99.90
16511;DHT22;8368;48.772;8.754;2022-09-27T00:53:31;9.00;99.90
16511;DHT22;8368;48.772;8.754;2022-09-27T00:56:04;9.00;99.90
16511;DHT22;8368;48.772;8.754;2022-09-27T00:58:35;9.00;99.90
16511;DHT22;8368;48.772;8.754;2022-09-27T01:01:06;9.00;99.90
16511;DHT22;8368;48.772;8.754;2022-09-27T01:03:58;9.00;99.90
16511;DHT22;8368;48.772;8.754;2022-09-27T01:06:25;9.00;99.90
16511;DHT22;8368;48.772;8.754;2022-09-27T01:08:50;9.00;99.90
16511;DHT22;8368;48.772;8.754;2022-09-27T01:11:37;9.00;99.90
16511;DHT22;8368;48.772;8.754;2022-09-27T01:16:52;9.00;99.90
16511;DHT22;8368;48.772;8.754;2022-09-27T01:28:17;9.00;99.90
16511;DHT22;8368;48.772;8.754;2022-09-27T01:30:54;9.00;99.90
16511;DHT22;8368;48.772;8.754;2022-09-27T01:33:45;9.00;99.90
16511;DHT22;8368;48.772;8.754;2022-09-27T01:36:30;9.00;99.90
16511;DHT22;8368;48.772;8.754;2022-09-27T01:39:22;9.00;99.90
16511;DHT22;8368;48.772;8.754;2022-09-27T01:42:04;9.00;99.90
16511;DHT22;8368;48.772;8.754;2022-09-27T01:44:46;9.00;99.90
16511;DHT22;8368;48.772;8.754;2022-09-27T01:47:28;9.00;99.90
16511;DHT22;8368;48.772;8.754;2022-09-27T01:50:10;9.00;99.90
16511;DHT22;8368;48.772;8.754;2022-09-27T01:52:56;8.90;99.90
16511;DHT22;8368;48.772;8.754;2022-09-27T01:55:27;8.90;99.90
16511;DHT22;8368;48.772;8.754;2022-09-27T01:57:59;8.80;99.90
16511;DHT22;8368;48.772;8.754;2022-09-27T02:00:27;8.70;99.90
16511;DHT22;8368;48.772;8.754;2022-09-27T02:02:59;8.60;99.90
16511;DHT22;8368;48.772;8.754;2022-09-27T02:05:30;8.50;99.90
16511;DHT22;8368;48.772;8.754;2022-09-27T02:08:29;8.30;99.90
16511;DHT22;8368;48.772;8.754;2022-09-27T02:10:58;8.20;99.90
16511;DHT22;8368;48.772;8.754;2022-09-27T02:13:57;8.10;99.90
16511;DHT22;8368;48.772;8.754;2022-09-27T02:16:48;8.00;99.90
16511;DHT22;8368;48.772;8.754;2022-09-27T02:19:39;7.90;99.90
16511;DHT22;8368;48.772;8.754;2022-09-27T02:27:17;7.80;99.90
16511;DHT22;8368;48.772;8.754;2022-09-27T02:29:49;7.80;99.90
16511;DHT22;8368;48.772;8.754;2022-09-27T02:32:17;7.70;99.90
16511;DHT22;8368;48.772;8.754;2022-09-27T02:34:44;7.70;99.90
16511;DHT22;8368;48.772;8.754;2022-09-27T02:37:11;7.70;99.90
16511;DHT22;8368;48.772;8.754;2022-09-27T02:39:37;7.60;99.90
16511;DHT22;8368;48.772;8.754;2022-09-27T02:42:03;7.60;99.90
16511;DHT22;8368;48.772;8.754;2022-09-27T02:44:29;7.60;99.90
16511;DHT22;8368;48.772;8.754;2022-09-27T02:47:17;7.60;99.90
16511;DHT22;8368;48.772;8.754;2022-09-27T02:52:41;7.70;99.90
16511;DHT22;8368;48.772;8.754;2022-09-27T03:00:48;7.70;99.90
16511;DHT22;8368;48.772;8.754;2022-09-27T03:03:51;7.70;99.90
16511;DHT22;8368;48.772;8.754;2022-09-27T03:06:17;7.80;99.90
16511;DHT22;8368;48.772;8.754;2022-09-27T03:08:44;7.80;99.90
16511;DHT22;8368;48.772;8.754;2022-09-27T03:11:10;7.80;99.90
16511;DHT22;8368;48.772;8.754;2022-09-27T03:13:35;7.90;99.90
16511;DHT22;8368;48.772;8.754;2022-09-27T03:16:06;7.80;99.90
16511;DHT22;8368;48.772;8.754;2022-09-27T03:18:32;7.90;99.90
16511;DHT22;8368;48.772;8.754;2022-09-27T03:20:58;7.90;99.90
16511;DHT22;8368;48.772;8.754;2022-09-27T03:23:24;7.90;99.90
16511;DHT22;8368;48.772;8.754;2022-09-27T03:25:49;7.90;99.90
16511;DHT22;8368;48.772;8.754;2022-09-27T03:28:16;8.00;99.90
16511;DHT22;8368;48.772;8.754;2022-09-27T03:30:44;8.00;99.90
16511;DHT22;8368;48.772;8.754;2022-09-27T03:33:09;8.00;99.90
16511;DHT22;8368;48.772;8.754;2022-09-27T03:35:35;8.00;99.90
16511;DHT22;8368;48.772;8.754;2022-09-27T03:38:01;8.00;99.90
16511;DHT22;8368;48.772;8.754;2022-09-27T03:40:27;8.10;99.90
16511;DHT22;8368;48.772;8.754;2022-09-27T03:42:53;8.10;99.90
16511;DHT22;8368;48.772;8.754;2022-09-27T03:45:19;8.00;99.90
16511;DHT22;8368;48.772;8.754;2022-09-27T03:47:45;8.00;99.90
16511;DHT22;8368;48.772;8.754;2022-09-27T03:50:11;8.00;99.90
16511;DHT22;8368;48.772;8.754;2022-09-27T03:52:37;8.00;99.90
16511;DHT22;8368;48.772;8.754;2022-09-27T03:55:03;8.00;99.90
16511;DHT22;8368;48.772;8.754;2022-09-27T03:57:29;8.00;99.90
16511;DHT22;8368;48.772;8.754;2022-09-27T03:59:55;8.00;99.90
16511;DHT22;8368;48.772;8.754;2022-09-27T04:02:24;8.00;99.90
16511;DHT22;8368;48.772;8.754;2022-09-27T04:04:49;8.00;99.90
16511;DHT22;8368;48.772;8.754;2022-09-27T04:07:15;8.00;99.90
16511;DHT22;8368;48.772;8.754;2022-09-27T04:09:42;8.00;99.90
16511;DHT22;8368;48.772;8.754;2022-09-27T04:12:09;7.90;99.90
16511;DHT22;8368;48.772;8.754;2022-09-27T04:14:34;7.90;99.90
16511;DHT22;8368;48.772;8.754;2022-09-27T04:17:00;7.90;99.90
16511;DHT22;8368;48.772;8.754;2022-09-27T04:19:26;7.90;99.90
16511;DHT22;8368;48.772;8.754;2022-09-27T04:21:51;7.90;99.90
16511;DHT22;8368;48.772;8.754;2022-09-27T04:24:17;7.90;99.90
16511;DHT22;8368;48.772;8.754;2022-09-27T04:26:42;7.90;99.90
16511;DHT22;8368;48.772;8.754;2022-09-27T04:29:08;7.90;99.90
16511;DHT22;8368;48.772;8.754;2022-09-27T04:31:34;8.00;99.90
16511;DHT22;8368;48.772;8.754;2022-09-27T04:34:04;7.90;99.90
16511;DHT22;8368;48.772;8.754;2022-09-27T04:36:31;7.90;99.90
16511;DHT22;8368;48.772;8.754;2022-09-27T04:38:58;7.90;99.90
16511;DHT22;8368;48.772;8.754;2022-09-27T04:41:26;7.90;99.90
16511;DHT22;8368;48.772;8.754;2022-09-27T04:43:55;7.80;99.90
16511;DHT22;8368;48.772;8.754;2022-09-27T04:46:21;7.80;99.90
16511;DHT22;8368;48.772;8.754;2022-09-27T04:48:47;7.80;99.90
16511;DHT22;8368;48.772;8.754;2022-09-27T04:51:14;7.80;99.90
16511;DHT22;8368;48.772;8.754;2022-09-27T04:53:45;7.70;99.90
16511;DHT22;8368;48.772;8.754;2022-09-27T04:56:13;7.70;99.90
16511;DHT22;8368;48.772;8.754;2022-09-27T04:58:40;7.80;99.90
16511;DHT22;8368;48.772;8.754;2022-09-27T05:01:06;7.70;99.90
16511;DHT22;8368;48.772;8.754;2022-09-27T05:03:33;7.70;99.90
16511;DHT22;8368;48.772;8.754;2022-09-27T05:05:59;7.70;99.90
16511;DHT22;8368;48.772;8.754;2022-09-27T05:08:25;7.70;99.90
16511;DHT22;8368;48.772;8.754;2022-09-27T05:10:50;7.70;99.90
16511;DHT22;8368;48.772;8.754;2022-09-27T05:13:16;7.80;99.90
16511;DHT22;8368;48.772;8.754;2022-09-27T05:15:43;7.80;99.90
16511;DHT22;8368;48.772;8.754;2022-09-27T05:18:08;7.70;99.90
16511;DHT22;8368;48.772;8.754;2022-09-27T05:20:35;7.70;99.90
16511;DHT22;8368;48.772;8.754;2022-09-27T05:23:01;7.70;99.90
16511;DHT22;8368;48.772;8.754;2022-09-27T05:25:29;7.70;99.90
16511;DHT22;8368;48.772;8.754;2022-09-27T05:27:55;7.70;99.90
16511;DHT22;8368;48.772;8.754;2022-09-27T05:30:21;7.70;99.90
16511;DHT22;8368;48.772;8.754;2022-09-27T05:32:47;7.60;99.90
16511;DHT22;8368;48.772;8.754;2022-09-27T05:35:15;7.60;99.90
16511;DHT22;8368;48.772;8.754;2022-09-27T05:37:42;7.60;99.90
16511;DHT22;8368;48.772;8.754;2022-09-27T05:40:08;7.50;99.90
16511;DHT22;8368;48.772;8.754;2022-09-27T05:42:33;7.50;99.90
16511;DHT22;8368;48.772;8.754;2022-09-27T05:45:03;7.50;99.90
16511;DHT22;8368;48.772;8.754;2022-09-27T05:47:29;7.50;99.90
16511;DHT22;8368;48.772;8.754;2022-09-27T05:49:54;7.50;99.90
16511;DHT22;8368;48.772;8.754;2022-09-27T05:52:20;7.50;99.90
16511;DHT22;8368;48.772;8.754;2022-09-27T05:54:46;7.50;99.90
16511;DHT22;8368;48.772;8.754;2022-09-27T05:57:11;7.50;99.90
16511;DHT22;8368;48.772;8.754;2022-09-27T05:59:37;7.50;99.90
16511;DHT22;8368;48.772;8.754;2022-09-27T06:02:02;7.50;99.90
16511;DHT22;8368;48.772;8.754;2022-09-27T06:04:28;7.50;99.90
16511;DHT22;8368;48.772;8.754;2022-09-27T06:06:53;7.50;99.90
16511;DHT22;8368;48.772;8.754;2022-09-27T06:09:19;7.50;99.90
16511;DHT22;8368;48.772;8.754;2022-09-27T06:11:44;7.50;99.90
16511;DHT22;8368;48.772;8.754;2022-09-27T06:14:13;7.50;99.90
16511;DHT22;8368;48.772;8.754;2022-09-27T06:16:39;7.50;99.90
16511;DHT22;8368;48.772;8.754;2022-09-27T06:19:05;7.50;99.90
16511;DHT22;8368;48.772;8.754;2022-09-27T06:21:30;7.40;99.90
16511;DHT22;8368;48.772;8.754;2022-09-27T06:23:57;7.50;99.90
16511;DHT22;8368;48.772;8.754;2022-09-27T06:26:24;7.50;99.90
16511;DHT22;8368;48.772;8.754;2022-09-27T06:28:51;7.50;99.90
16511;DHT22;8368;48.772;8.754;2022-09-27T06:31:17;7.50;99.90
16511;DHT22;8368;48.772;8.754;2022-09-27T06:33:42;7.40;99.90
16511;DHT22;8368;48.772;8.754;2022-09-27T06:36:08;7.40;99.90
16511;DHT22;8368;48.772;8.754;2022-09-27T06:38:34;7.50;99.90
16511;DHT22;8368;48.772;8.754;2022-09-27T06:41:01;7.50;99.90
16511;DHT22;8368;48.772;8.754;2022-09-27T06:43:27;7.50;99.90
16511;DHT22;8368;48.772;8.754;2022-09-27T06:45:53;7.50;99.90
16511;DHT22;8368;48.772;8.754;2022-09-27T06:48:19;7.50;99.90
16511;DHT22;8368;48.772;8.754;2022-09-27T06:50:46;7.50;99.90
16511;DHT22;8368;48.772;8.754;2022-09-27T06:53:14;7.50;99.90
16511;DHT22;8368;48.772;8.754;2022-09-27T06:55:41;7.50;99.90
16511;DHT22;8368;48.772;8.754;2022-09-27T06:58:08;7.40;99.90
16511;DHT22;8368;48.772;8.754;2022-09-27T07:00:53;7.40;99.90
16511;DHT22;8368;48.772;8.754;2022-09-27T07:03:20;7.50;99.90
16511;DHT22;8368;48.772;8.754;2022-09-27T07:05:59;7.60;99.90
16511;DHT22;8368;48.772;8.754;2022-09-27T07:08:25;7.50;99.90
16511;DHT22;8368;48.772;8.754;2022-09-27T07:10:51;7.50;99.90
16511;DHT22;8368;48.772;8.754;2022-09-27T07:13:18;7.50;99.90
16511;DHT22;8368;48.772;8.754;2022-09-27T07:15:43;7.50;99.90
16511;DHT22;8368;48.772;8.754;2022-09-27T07:18:09;7.50;99.90
16511;DHT22;8368;48.772;8.754;2022-09-27T07:20:35;7.50;99.90
16511;DHT22;8368;48.772;8.754;2022-09-27T07:23:03;7.50;99.90
16511;DHT22;8368;48.772;8.754;2022-09-27T07:25:30;7.50;99.90
16511;DHT22;8368;48.772;8.754;2022-09-27T07:28:00;7.50;99.90
16511;DHT22;8368;48.772;8.754;2022-09-27T07:30:26;7.70;99.90
16511;DHT22;8368;48.772;8.754;2022-09-27T07:32:57;7.90;99.90
16511;DHT22;8368;48.772;8.754;2022-09-27T07:35:23;7.90;99.90
16511;DHT22;8368;48.772;8.754;2022-09-27T07:37:49;8.00;99.90
16511;DHT22;8368;48.772;8.754;2022-09-27T07:40:14;8.00;99.90
16511;DHT22;8368;48.772;8.754;2022-09-27T07:42:40;7.80;99.90
16511;DHT22;8368;48.772;8.754;2022-09-27T07:45:07;7.80;99.90
16511;DHT22;8368;48.772;8.754;2022-09-27T07:47:33;7.80;99.90
16511;DHT22;8368;48.772;8.754;2022-09-27T07:49:59;7.70;99.90
16511;DHT22;8368;48.772;8.754;2022-09-27T07:52:24;7.70;99.90
16511;DHT22;8368;48.772;8.754;2022-09-27T07:54:50;7.60;99.90
16511;DHT22;8368;48.772;8.754;2022-09-27T07:57:16;7.70;99.90
16511;DHT22;8368;48.772;8.754;2022-09-27T07:59:42;7.70;99.90
16511;DHT22;8368;48.772;8.754;2022-09-27T08:02:17;7.80;99.90
16511;DHT22;8368;48.772;8.754;2022-09-27T08:04:42;8.00;99.90
16511;DHT22;8368;48.772;8.754;2022-09-27T08:07:09;8.10;99.90
16511;DHT22;8368;48.772;8.754;2022-09-27T08:09:35;8.20;99.90
16511;DHT22;8368;48.772;8.754;2022-09-27T08:12:00;8.10;99.90
16511;DHT22;8368;48.772;8.754;2022-09-27T08:14:28;8.00;99.90
16511;DHT22;8368;48.772;8.754;2022-09-27T08:16:54;8.00;99.90
16511;DHT22;8368;48.772;8.754;2022-09-27T08:19:19;8.10;99.90
16511;DHT22;8368;48.772;8.754;2022-09-27T08:21:45;8.10;99.90
16511;DHT22;8368;48.772;8.754;2022-09-27T08:24:12;8.20;99.90
16511;DHT22;8368;48.772;8.754;2022-09-27T08:26:38;8.30;99.90
16511;DHT22;8368;48.772;8.754;2022-09-27T08:29:03;8.20;99.90
16511;DHT22;8368;48.772;8.754;2022-09-27T08:31:29;8.20;99.90
16511;DHT22;8368;48.772;8.754;2022-09-27T08:33:55;8.10;99.90
16511;DHT22;8368;48.772;8.754;2022-09-27T08:36:22;8.10;99.90
16511;DHT22;8368;48.772;8.754;2022-09-27T08:38:50;8.10;99.90
16511;DHT22;8368;48.772;8.754;2022-09-27T08:41:28;8.10;99.90
16511;DHT22;8368;48.772;8.754;2022-09-27T08:44:04;8.10;99.90
16511;DHT22;8368;48.772;8.754;2022-09-27T08:49:13;8.00;99.90
16511;DHT22;8368;48.772;8.754;2022-09-27T08:51:42;8.10;99.90
16511;DHT22;8368;48.772;8.754;2022-09-27T08:54:17;8.10;99.90
16511;DHT22;8368;48.772;8.754;2022-09-27T08:56:44;8.00;99.90
16511;DHT22;8368;48.772;8.754;2022-09-27T08:59:15;7.80;99.90
16511;DHT22;8368;48.772;8.754;2022-09-27T09:01:45;7.80;99.90
16511;DHT22;8368;48.772;8.754;2022-09-27T09:04:12;7.70;99.90
16511;DHT22;8368;48.772;8.754;2022-09-27T09:06:57;7.60;99.90
16511;DHT22;8368;48.772;8.754;2022-09-27T09:09:50;7.50;99.90
16511;DHT22;8368;48.772;8.754;2022-09-27T09:12:48;7.50;99.90
16511;DHT22;8368;48.772;8.754;2022-09-27T09:18:18;7.60;99.90
16511;DHT22;8368;48.772;8.754;2022-09-27T09:20:55;7.70;99.90
16511;DHT22;8368;48.772;8.754;2022-09-27T09:26:13;8.00;99.90
16511;DHT22;8368;48.772;8.754;2022-09-27T09:29:08;8.10;99.90
16511;DHT22;8368;48.772;8.754;2022-09-27T09:31:47;8.30;99.90
16511;DHT22;8368;48.772;8.754;2022-09-27T09:34:22;8.40;99.90
16511;DHT22;8368;48.772;8.754;2022-09-27T09:37:01;8.60;99.90
16511;DHT22;8368;48.772;8.754;2022-09-27T09:39:37;8.80;99.90
16511;DHT22;8368;48.772;8.754;2022-09-27T09:42:29;8.90;99.90
16511;DHT22;8368;48.772;8.754;2022-09-27T09:45:13;9.00;99.90
16511;DHT22;8368;48.772;8.754;2022-09-27T09:50:17;9.20;99.90
16511;DHT22;8368;48.772;8.754;2022-09-27T09:53:01;9.30;99.90
16511;DHT22;8368;48.772;8.754;2022-09-27T09:55:32;9.30;99.90
16511;DHT22;8368;48.772;8.754;2022-09-27T10:00:44;9.40;99.90
16511;DHT22;8368;48.772;8.754;2022-09-27T10:03:12;9.40;99.90
16511;DHT22;8368;48.772;8.754;2022-09-27T10:05:37;9.60;99.90
16511;DHT22;8368;48.772;8.754;2022-09-27T10:08:20;9.60;99.90
16511;DHT22;8368;48.772;8.754;2022-09-27T10:10:47;9.80;99.90
16511;DHT22;8368;48.772;8.754;2022-09-27T10:13:18;10.00;99.90
16511;DHT22;8368;48.772;8.754;2022-09-27T10:16:08;10.00;99.90
16511;DHT22;8368;48.772;8.754;2022-09-27T10:18:36;10.10;99.90
16511;DHT22;8368;48.772;8.754;2022-09-27T10:21:09;10.00;99.90
16511;DHT22;8368;48.772;8.754;2022-09-27T10:24:10;10.10;99.90
16511;DHT22;8368;48.772;8.754;2022-09-27T10:26:37;10.20;99.90
16511;DHT22;8368;48.772;8.754;2022-09-27T10:31:48;10.40;99.90
16511;DHT22;8368;48.772;8.754;2022-09-27T10:34:33;10.30;99.90
16511;DHT22;8368;48.772;8.754;2022-09-27T10:39:30;10.30;99.90
16511;DHT22;8368;48.772;8.754;2022-09-27T10:41:56;10.30;99.90
16511;DHT22;8368;48.772;8.754;2022-09-27T10:44:27;10.20;99.90
16511;DHT22;8368;48.772;8.754;2022-09-27T10:47:05;10.10;99.90
16511;DHT22;8368;48.772;8.754;2022-09-27T10:49:37;10.20;99.90
16511;DHT22;8368;48.772;8.754;2022-09-27T10:52:22;10.30;99.90
16511;DHT22;8368;48.772;8.754;2022-09-27T10:55:20;10.40;99.90
16511;DHT22;8368;48.772;8.754;2022-09-27T10:57:51;10.40;99.90
16511;DHT22;8368;48.772;8.754;2022-09-27T11:02:54;10.50;99.90
16511;DHT22;8368;48.772;8.754;2022-09-27T11:07:54;10.20;99.90
16511;DHT22;8368;48.772;8.754;2022-09-27T11:10:31;10.10;99.90
16511;DHT22;8368;48.772;8.754;2022-09-27T11:13:17;10.00;99.90
16511;DHT22;8368;48.772;8.754;2022-09-27T11:21:17;10.10;99.90
16511;DHT22;8368;48.772;8.754;2022-09-27T11:27:20;10.10;99.90
16511;DHT22;8368;48.772;8.754;2022-09-27T11:32:52;10.10;99.90
16511;DHT22;8368;48.772;8.754;2022-09-27T11:35:46;10.10;99.90
16511;DHT22;8368;48.772;8.754;2022-09-27T11:44:31;10.00;99.90
16511;DHT22;8368;48.772;8.754;2022-09-27T11:58:56;9.30;99.90
16511;DHT22;8368;48.772;8.754;2022-09-27T12:04:14;9.20;99.90
16511;DHT22;8368;48.772;8.754;2022-09-27T12:07:11;9.10;99.90
16511;DHT22;8368;48.772;8.754;2022-09-27T12:09:45;9.00;99.90
16511;DHT22;8368;48.772;8.754;2022-09-27T12:12:20;9.00;99.90
16511;DHT22;8368;48.772;8.754;2022-09-27T12:15:12;8.90;99.90
16511;DHT22;8368;48.772;8.754;2022-09-27T12:17:41;9.00;99.90
16511;DHT22;8368;48.772;8.754;2022-09-27T12:20:24;9.00;99.90
16511;DHT22;8368;48.772;8.754;2022-09-27T12:25:35;9.00;99.90
16511;DHT22;8368;48.772;8.754;2022-09-27T12:28:26;9.10;99.90
16511;DHT22;8368;48.772;8.754;2022-09-27T12:31:00;9.20;99.90
16511;DHT22;8368;48.772;8.754;2022-09-27T12:33:32;9.20;99.90
16511;DHT22;8368;48.772;8.754;2022-09-27T12:36:05;9.30;99.90
16511;DHT22;8368;48.772;8.754;2022-09-27T12:38:41;9.40;99.90
16511;DHT22;8368;48.772;8.754;2022-09-27T12:41:10;9.30;99.90
16511;DHT22;8368;48.772;8.754;2022-09-27T12:43:40;9.30;99.90
16511;DHT22;8368;48.772;8.754;2022-09-27T12:49:01;9.40;99.90
16511;DHT22;8368;48.772;8.754;2022-09-27T13:00:11;9.50;99.90
16511;DHT22;8368;48.772;8.754;2022-09-27T13:14:28;9.50;99.90
16511;DHT22;8368;48.772;8.754;2022-09-27T13:16:55;9.90;99.90
16511;DHT22;8368;48.772;8.754;2022-09-27T13:19:37;10.20;99.90
16511;DHT22;8368;48.772;8.754;2022-09-27T13:22:35;10.40;99.90
16511;DHT22;8368;48.772;8.754;2022-09-27T13:25:01;10.40;99.90
16511;DHT22;8368;48.772;8.754;2022-09-27T13:32:33;10.50;99.90
16511;DHT22;8368;48.772;8.754;2022-09-27T13:35:22;10.20;99.90
16511;DHT22;8368;48.772;8.754;2022-09-27T13:37:55;10.00;99.90
16511;DHT22;8368;48.772;8.754;2022-09-27T13:40:34;9.80;99.90
16511;DHT22;8368;48.772;8.754;2022-09-27T13:45:50;9.40;99.90
16511;DHT22;8368;48.772;8.754;2022-09-27T13:51:01;9.10;99.90
16511;DHT22;8368;48.772;8.754;2022-09-27T13:53:38;8.90;99.90
16511;DHT22;8368;48.772;8.754;2022-09-27T13:56:04;8.80;99.90
16511;DHT22;8368;48.772;8.754;2022-09-27T13:58:43;8.80;99.90
16511;DHT22;8368;48.772;8.754;2022-09-27T14:01:34;8.70;99.90
16511;DHT22;8368;48.772;8.754;2022-09-27T14:04:14;8.70;99.90
16511;DHT22;8368;48.772;8.754;2022-09-27T14:06:44;8.80;99.90
16511;DHT22;8368;48.772;8.754;2022-09-27T14:09:20;8.80;99.90
16511;DHT22;8368;48.772;8.754;2022-09-27T14:11:52;8.80;99.90
16511;DHT22;8368;48.772;8.754;2022-09-27T14:14:23;8.80;99.90
16511;DHT22;8368;48.772;8.754;2022-09-27T14:16:50;8.90;99.90
16511;DHT22;8368;48.772;8.754;2022-09-27T14:19:21;9.00;99.90
16511;DHT22;8368;48.772;8.754;2022-09-27T14:21:47;9.20;99.90
16511;DHT22;8368;48.772;8.754;2022-09-27T14:27:09;9.50;99.90
16511;DHT22;8368;48.772;8.754;2022-09-27T14:29:42;9.60;99.90
16511;DHT22;8368;48.772;8.754;2022-09-27T14:32:18;9.70;99.90
16511;DHT22;8368;48.772;8.754;2022-09-27T14:34:44;9.50;99.90
16511;DHT22;8368;48.772;8.754;2022-09-27T14:37:20;9.40;99.90
16511;DHT22;8368;48.772;8.754;2022-09-27T14:39:53;9.20;99.90
16511;DHT22;8368;48.772;8.754;2022-09-27T14:42:24;9.00;99.90
16511;DHT22;8368;48.772;8.754;2022-09-27T14:44:51;9.00;99.90
16511;DHT22;8368;48.772;8.754;2022-09-27T14:49:48;9.10;99.90
16511;DHT22;8368;48.772;8.754;2022-09-27T14:52:17;9.00;99.90
16511;DHT22;8368;48.772;8.754;2022-09-27T14:54:43;9.10;99.90
16511;DHT22;8368;48.772;8.754;2022-09-27T14:57:14;9.20;99.90
16511;DHT22;8368;48.772;8.754;2022-09-27T14:59:41;9.30;99.90
16511;DHT22;8368;48.772;8.754;2022-09-27T15:02:17;9.40;99.90
16511;DHT22;8368;48.772;8.754;2022-09-27T15:04:45;9.40;99.90
16511;DHT22;8368;48.772;8.754;2022-09-27T15:07:12;9.30;99.90
16511;DHT22;8368;48.772;8.754;2022-09-27T15:09:42;9.10;99.90
16511;DHT22;8368;48.772;8.754;2022-09-27T15:12:12;9.00;99.90
16511;DHT22;8368;48.772;8.754;2022-09-27T15:14:39;9.10;99.90
16511;DHT22;8368;48.772;8.754;2022-09-27T15:17:15;9.00;99.90
16511;DHT22;8368;48.772;8.754;2022-09-27T15:20:02;8.90;99.90
16511;DHT22;8368;48.772;8.754;2022-09-27T15:22:45;8.80;99.90
16511;DHT22;8368;48.772;8.754;2022-09-27T15:25:40;8.80;99.90
16511;DHT22;8368;48.772;8.754;2022-09-27T15:28:17;8.70;99.90
16511;DHT22;8368;48.772;8.754;2022-09-27T15:30:57;8.70;99.90
16511;DHT22;8368;48.772;8.754;2022-09-27T15:33:25;8.80;99.90
16511;DHT22;8368;48.772;8.754;2022-09-27T15:35:54;8.90;99.90
16511;DHT22;8368;48.772;8.754;2022-09-27T15:46:23;8.90;99.90
16511;DHT22;8368;48.772;8.754;2022-09-27T15:51:48;8.80;99.90
16511;DHT22;8368;48.772;8.754;2022-09-27T15:54:20;8.80;99.90
16511;DHT22;8368;48.772;8.754;2022-09-27T15:56:47;8.80;99.90
16511;DHT22;8368;48.772;8.754;2022-09-27T15:59:24;8.90;99.90
16511;DHT22;8368;48.772;8.754;2022-09-27T16:01:54;8.80;99.90
16511;DHT22;8368;48.772;8.754;2022-09-27T16:04:20;8.80;99.90
16511;DHT22;8368;48.772;8.754;2022-09-27T16:06:46;8.70;99.90
16511;DHT22;8368;48.772;8.754;2022-09-27T16:09:16;8.70;99.90
16511;DHT22;8368;48.772;8.754;2022-09-27T16:11:43;8.70;99.90
16511;DHT22;8368;48.772;8.754;2022-09-27T16:14:09;8.60;99.90
16511;DHT22;8368;48.772;8.754;2022-09-27T16:16:35;8.60;99.90
16511;DHT22;8368;48.772;8.754;2022-09-27T16:19:01;8.50;99.90
16511;DHT22;8368;48.772;8.754;2022-09-27T16:21:27;8.40;99.90
16511;DHT22;8368;48.772;8.754;2022-09-27T16:23:52;8.40;99.90
16511;DHT22;8368;48.772;8.754;2022-09-27T16:26:18;8.40;99.90
16511;DHT22;8368;48.772;8.754;2022-09-27T16:28:44;8.40;99.90
16511;DHT22;8368;48.772;8.754;2022-09-27T16:31:11;8.40;99.90
16511;DHT22;8368;48.772;8.754;2022-09-27T16:33:37;8.30;99.90
16511;DHT22;8368;48.772;8.754;2022-09-27T16:36:07;8.30;99.90
16511;DHT22;8368;48.772;8.754;2022-09-27T16:38:47;8.30;99.90
16511;DHT22;8368;48.772;8.754;2022-09-27T16:41:12;8.30;99.90
16511;DHT22;8368;48.772;8.754;2022-09-27T16:43:38;8.20;99.90
16511;DHT22;8368;48.772;8.754;2022-09-27T16:53:01;8.10;99.90
16511;DHT22;8368;48.772;8.754;2022-09-27T16:55:27;8.00;99.90
16511;DHT22;8368;48.772;8.754;2022-09-27T16:57:56;8.10;99.90
16511;DHT22;8368;48.772;8.754;2022-09-27T17:00:22;8.10;99.90
16511;DHT22;8368;48.772;8.754;2022-09-27T17:02:48;8.10;99.90
16511;DHT22;8368;48.772;8.754;2022-09-27T17:05:14;8.10;99.90
16511;DHT22;8368;48.772;8.754;2022-09-27T17:07:40;8.10;99.90
16511;DHT22;8368;48.772;8.754;2022-09-27T17:10:07;8.10;99.90
16511;DHT22;8368;48.772;8.754;2022-09-27T17:12:33;8.10;99.90
16511;DHT22;8368;48.772;8.754;2022-09-27T17:14:58;8.10;99.90
16511;DHT22;8368;48.772;8.754;2022-09-27T17:17:24;8.10;99.90
16511;DHT22;8368;48.772;8.754;2022-09-27T17:19:50;8.10;99.90
16511;DHT22;8368;48.772;8.754;2022-09-27T17:22:16;8.00;99.90
16511;DHT22;8368;48.772;8.754;2022-09-27T17:24:43;8.00;99.90
16511;DHT22;8368;48.772;8.754;2022-09-27T17:27:15;8.00;99.90
16511;DHT22;8368;48.772;8.754;2022-09-27T17:29:44;7.90;99.90
16511;DHT22;8368;48.772;8.754;2022-09-27T17:32:11;7.90;99.90
16511;DHT22;8368;48.772;8.754;2022-09-27T17:34:40;7.80;99.90
16511;DHT22;8368;48.772;8.754;2022-09-27T17:37:10;7.80;99.90
16511;DHT22;8368;48.772;8.754;2022-09-27T17:39:39;7.70;99.90
16511;DHT22;8368;48.772;8.754;2022-09-27T17:42:06;7.70;99.90
16511;DHT22;8368;48.772;8.754;2022-09-27T17:44:32;7.60;99.90
16511;DHT22;8368;48.772;8.754;2022-09-27T17:50:19;7.50;99.90
16511;DHT22;8368;48.772;8.754;2022-09-27T17:52:56;7.40;99.90
16511;DHT22;8368;48.772;8.754;2022-09-27T17:55:23;7.40;99.90
16511;DHT22;8368;48.772;8.754;2022-09-27T17:57:49;7.30;99.90
16511;DHT22;8368;48.772;8.754;2022-09-27T18:00:16;7.30;99.90
16511;DHT22;8368;48.772;8.754;2022-09-27T18:02:42;7.20;99.90
16511;DHT22;8368;48.772;8.754;2022-09-27T18:05:10;7.20;99.90
16511;DHT22;8368;48.772;8.754;2022-09-27T18:07:37;7.10;99.90
16511;DHT22;8368;48.772;8.754;2022-09-27T18:10:04;7.10;99.90
16511;DHT22;8368;48.772;8.754;2022-09-27T18:12:29;7.10;99.90
16511;DHT22;8368;48.772;8.754;2022-09-27T18:15:02;7.00;99.90
16511;DHT22;8368;48.772;8.754;2022-09-27T18:17:28;7.00;99.90
16511;DHT22;8368;48.772;8.754;2022-09-27T18:19:54;6.90;99.90
16511;DHT22;8368;48.772;8.754;2022-09-27T18:22:22;6.90;99.90
16511;DHT22;8368;48.772;8.754;2022-09-27T18:24:50;6.80;99.90
16511;DHT22;8368;48.772;8.754;2022-09-27T18:27:16;6.80;99.90
16511;DHT22;8368;48.772;8.754;2022-09-27T18:29:43;6.80;99.90
16511;DHT22;8368;48.772;8.754;2022-09-27T18:32:09;6.70;99.90
16511;DHT22;8368;48.772;8.754;2022-09-27T18:34:34;6.70;99.90
16511;DHT22;8368;48.772;8.754;2022-09-27T18:37:00;6.70;99.90
16511;DHT22;8368;48.772;8.754;2022-09-27T18:39:25;6.60;99.90
16511;DHT22;8368;48.772;8.754;2022-09-27T18:41:51;6.60;99.90
16511;DHT22;8368;48.772;8.754;2022-09-27T18:44:18;6.60;99.90
16511;DHT22;8368;48.772;8.754;2022-09-27T18:46:44;6.50;99.90